sensor_id;sensor_type;location;lat;lon;timestamp;P1;durP1;ratioP1;P2;durP2;ratioP2
8702;SDS011;9002;42.708;23.186;2023-06-04T00:01:22;5.00;;;4.60;;
8702;SDS011;9002;42.708;23.186;2023-06-04T00:03:49;4.50;;;4.10;;
8702;SDS011;9002;42.708;23.186;2023-06-04T00:06:16;4.77;;;4.00;;
8702;SDS011;9002;42.708;23.186;2023-06-04T00:08:42;4.37;;;3.97;;
8702;SDS011;9002;42.708;23.186;2023-06-04T00:11:10;4.27;;;3.97;;
8702;SDS011;9002;42.708;23.186;2023-06-04T00:13:37;5.63;;;4.00;;
8702;SDS011;9002;42.708;23.186;2023-06-04T00:16:04;4.10;;;3.70;;
8702;SDS011;9002;42.708;23.186;2023-06-04T00:18:31;4.40;;;4.00;;
8702;SDS011;9002;42.708;23.186;2023-06-04T00:20:58;4.37;;;3.97;;
8702;SDS011;9002;42.708;23.186;2023-06-04T00:23:25;4.33;;;3.93;;
8702;SDS011;9002;42.708;23.186;2023-06-04T00:25:52;4.20;;;3.80;;
8702;SDS011;9002;42.708;23.186;2023-06-04T00:28:20;4.13;;;3.80;;
8702;SDS011;9002;42.708;23.186;2023-06-04T00:30:47;4.17;;;3.77;;
8702;SDS011;9002;42.708;23.186;2023-06-04T00:33:14;4.50;;;4.10;;
8702;SDS011;9002;42.708;23.186;2023-06-04T00:35:40;3.83;;;3.50;;
8702;SDS011;9002;42.708;23.186;2023-06-04T00:40:50;4.37;;;3.97;;
8702;SDS011;9002;42.708;23.186;2023-06-04T00:43:16;4.77;;;4.37;;
8702;SDS011;9002;42.708;23.186;2023-06-04T00:45:45;4.00;;;3.60;;
8702;SDS011;9002;42.708;23.186;2023-06-04T00:48:12;4.47;;;4.07;;
8702;SDS011;9002;42.708;23.186;2023-06-04T00:50:38;4.70;;;4.30;;
8702;SDS011;9002;42.708;23.186;2023-06-04T00:53:06;4.47;;;4.07;;
8702;SDS011;9002;42.708;23.186;2023-06-04T00:55:33;4.60;;;4.20;;
8702;SDS011;9002;42.708;23.186;2023-06-04T00:58:00;4.40;;;4.00;;
8702;SDS011;9002;42.708;23.186;2023-06-04T01:00:29;5.33;;;4.30;;
8702;SDS011;9002;42.708;23.186;2023-06-04T01:02:58;4.83;;;4.43;;
8702;SDS011;9002;42.708;23.186;2023-06-04T01:05:32;4.20;;;3.90;;
8702;SDS011;9002;42.708;23.186;2023-06-04T01:08:04;5.33;;;4.13;;
8702;SDS011;9002;42.708;23.186;2023-06-04T01:10:34;4.77;;;4.37;;
8702;SDS011;9002;42.708;23.186;2023-06-04T01:13:01;4.67;;;4.17;;
8702;SDS011;9002;42.708;23.186;2023-06-04T01:15:28;5.47;;;4.77;;
8702;SDS011;9002;42.708;23.186;2023-06-04T01:17:56;4.43;;;4.03;;
8702;SDS011;9002;42.708;23.186;2023-06-04T01:20:30;5.00;;;4.43;;
8702;SDS011;9002;42.708;23.186;2023-06-04T01:25:52;4.60;;;4.03;;
8702;SDS011;9002;42.708;23.186;2023-06-04T01:28:22;4.30;;;3.90;;
8702;SDS011;9002;42.708;23.186;2023-06-04T01:30:52;4.47;;;3.60;;
8702;SDS011;9002;42.708;23.186;2023-06-04T01:33:23;4.93;;;3.80;;
8702;SDS011;9002;42.708;23.186;2023-06-04T01:35:49;5.43;;;4.13;;
8702;SDS011;9002;42.708;23.186;2023-06-04T01:38:16;4.93;;;4.10;;
8702;SDS011;9002;42.708;23.186;2023-06-04T01:40:43;4.53;;;3.90;;
8702;SDS011;9002;42.708;23.186;2023-06-04T01:43:10;4.17;;;3.87;;
8702;SDS011;9002;42.708;23.186;2023-06-04T01:45:37;4.63;;;4.23;;
8702;SDS011;9002;42.708;23.186;2023-06-04T01:48:04;4.33;;;3.50;;
8702;SDS011;9002;42.708;23.186;2023-06-04T01:50:33;4.13;;;3.73;;
8702;SDS011;9002;42.708;23.186;2023-06-04T01:53:00;4.73;;;3.93;;
8702;SDS011;9002;42.708;23.186;2023-06-04T01:55:27;4.00;;;3.60;;
8702;SDS011;9002;42.708;23.186;2023-06-04T01:57:58;3.97;;;3.57;;
8702;SDS011;9002;42.708;23.186;2023-06-04T02:00:25;4.27;;;3.77;;
8702;SDS011;9002;42.708;23.186;2023-06-04T02:02:53;3.63;;;3.33;;
8702;SDS011;9002;42.708;23.186;2023-06-04T02:05:21;3.70;;;3.37;;
8702;SDS011;9002;42.708;23.186;2023-06-04T02:07:49;3.93;;;3.30;;
8702;SDS011;9002;42.708;23.186;2023-06-04T02:10:17;3.53;;;3.23;;
8702;SDS011;9002;42.708;23.186;2023-06-04T02:12:55;4.50;;;3.50;;
8702;SDS011;9002;42.708;23.186;2023-06-04T02:15:24;3.37;;;3.13;;
8702;SDS011;9002;42.708;23.186;2023-06-04T02:17:53;4.40;;;3.50;;
8702;SDS011;9002;42.708;23.186;2023-06-04T02:20:23;4.33;;;3.93;;
8702;SDS011;9002;42.708;23.186;2023-06-04T02:22:51;4.53;;;3.60;;
8702;SDS011;9002;42.708;23.186;2023-06-04T02:25:19;3.87;;;3.50;;
8702;SDS011;9002;42.708;23.186;2023-06-04T02:27:46;6.00;;;5.30;;
8702;SDS011;9002;42.708;23.186;2023-06-04T02:30:13;4.73;;;4.33;;
8702;SDS011;9002;42.708;23.186;2023-06-04T02:32:42;3.87;;;3.57;;
8702;SDS011;9002;42.708;23.186;2023-06-04T02:37:56;5.83;;;3.77;;
8702;SDS011;9002;42.708;23.186;2023-06-04T02:40:23;5.00;;;4.00;;
8702;SDS011;9002;42.708;23.186;2023-06-04T02:42:51;4.17;;;3.77;;
8702;SDS011;9002;42.708;23.186;2023-06-04T02:45:19;3.67;;;3.37;;
8702;SDS011;9002;42.708;23.186;2023-06-04T02:47:46;3.67;;;3.37;;
8702;SDS011;9002;42.708;23.186;2023-06-04T02:50:13;4.67;;;3.97;;
8702;SDS011;9002;42.708;23.186;2023-06-04T02:52:40;4.53;;;4.10;;
8702;SDS011;9002;42.708;23.186;2023-06-04T02:55:09;3.53;;;3.23;;
8702;SDS011;9002;42.708;23.186;2023-06-04T02:57:38;4.30;;;3.90;;
8702;SDS011;9002;42.708;23.186;2023-06-04T03:00:07;5.03;;;3.77;;
8702;SDS011;9002;42.708;23.186;2023-06-04T03:02:38;3.80;;;3.50;;
8702;SDS011;9002;42.708;23.186;2023-06-04T03:05:07;5.10;;;4.60;;
8702;SDS011;9002;42.708;23.186;2023-06-04T03:07:35;4.50;;;4.10;;
8702;SDS011;9002;42.708;23.186;2023-06-04T03:10:02;5.73;;;4.97;;
8702;SDS011;9002;42.708;23.186;2023-06-04T03:12:31;5.20;;;4.70;;
8702;SDS011;9002;42.708;23.186;2023-06-04T03:14:58;4.50;;;4.10;;
8702;SDS011;9002;42.708;23.186;2023-06-04T03:17:25;4.03;;;3.73;;
8702;SDS011;9002;42.708;23.186;2023-06-04T03:19:52;8.17;;;5.77;;
8702;SDS011;9002;42.708;23.186;2023-06-04T03:22:21;4.67;;;4.27;;
8702;SDS011;9002;42.708;23.186;2023-06-04T03:24:48;4.67;;;4.27;;
8702;SDS011;9002;42.708;23.186;2023-06-04T03:27:15;4.67;;;3.90;;
8702;SDS011;9002;42.708;23.186;2023-06-04T03:29:43;4.63;;;4.20;;
8702;SDS011;9002;42.708;23.186;2023-06-04T03:32:10;4.77;;;4.37;;
8702;SDS011;9002;42.708;23.186;2023-06-04T03:34:38;6.73;;;5.77;;
8702;SDS011;9002;42.708;23.186;2023-06-04T03:37:05;5.53;;;4.80;;
8702;SDS011;9002;42.708;23.186;2023-06-04T03:39:32;4.40;;;4.00;;
8702;SDS011;9002;42.708;23.186;2023-06-04T03:44:28;7.70;;;6.90;;
8702;SDS011;9002;42.708;23.186;2023-06-04T03:46:56;9.87;;;8.87;;
8702;SDS011;9002;42.708;23.186;2023-06-04T03:49:23;5.23;;;4.73;;
8702;SDS011;9002;42.708;23.186;2023-06-04T03:51:50;4.80;;;4.20;;
8702;SDS011;9002;42.708;23.186;2023-06-04T03:54:17;4.43;;;4.00;;
8702;SDS011;9002;42.708;23.186;2023-06-04T03:56:44;4.63;;;4.23;;
8702;SDS011;9002;42.708;23.186;2023-06-04T03:59:11;4.40;;;4.00;;
8702;SDS011;9002;42.708;23.186;2023-06-04T04:01:38;5.37;;;4.43;;
8702;SDS011;9002;42.708;23.186;2023-06-04T04:04:06;4.80;;;4.40;;
8702;SDS011;9002;42.708;23.186;2023-06-04T04:06:33;7.00;;;6.40;;
8702;SDS011;9002;42.708;23.186;2023-06-04T04:09:00;4.90;;;4.50;;
8702;SDS011;9002;42.708;23.186;2023-06-04T04:11:29;4.90;;;4.47;;
8702;SDS011;9002;42.708;23.186;2023-06-04T04:13:56;5.27;;;4.77;;
8702;SDS011;9002;42.708;23.186;2023-06-04T04:18:58;6.47;;;5.30;;
8702;SDS011;9002;42.708;23.186;2023-06-04T04:21:26;6.00;;;4.83;;
8702;SDS011;9002;42.708;23.186;2023-06-04T04:23:53;5.83;;;5.00;;
8702;SDS011;9002;42.708;23.186;2023-06-04T04:26:20;6.00;;;5.40;;
8702;SDS011;9002;42.708;23.186;2023-06-04T04:28:47;5.40;;;4.87;;
8702;SDS011;9002;42.708;23.186;2023-06-04T04:31:14;7.17;;;5.63;;
8702;SDS011;9002;42.708;23.186;2023-06-04T04:33:42;6.17;;;5.63;;
8702;SDS011;9002;42.708;23.186;2023-06-04T04:36:09;6.60;;;6.00;;
8702;SDS011;9002;42.708;23.186;2023-06-04T04:38:40;9.73;;;5.70;;
8702;SDS011;9002;42.708;23.186;2023-06-04T04:41:07;7.00;;;5.40;;
8702;SDS011;9002;42.708;23.186;2023-06-04T04:43:35;6.67;;;6.00;;
8702;SDS011;9002;42.708;23.186;2023-06-04T04:48:45;6.23;;;5.53;;
8702;SDS011;9002;42.708;23.186;2023-06-04T04:51:12;5.63;;;5.13;;
8702;SDS011;9002;42.708;23.186;2023-06-04T04:53:38;6.53;;;5.27;;
8702;SDS011;9002;42.708;23.186;2023-06-04T04:56:08;8.07;;;6.30;;
8702;SDS011;9002;42.708;23.186;2023-06-04T04:58:34;6.63;;;5.93;;
8702;SDS011;9002;42.708;23.186;2023-06-04T05:01:01;6.33;;;5.73;;
8702;SDS011;9002;42.708;23.186;2023-06-04T05:03:28;7.33;;;5.77;;
8702;SDS011;9002;42.708;23.186;2023-06-04T05:05:55;6.40;;;5.77;;
8702;SDS011;9002;42.708;23.186;2023-06-04T05:08:21;6.90;;;5.90;;
8702;SDS011;9002;42.708;23.186;2023-06-04T05:10:50;6.50;;;5.90;;
8702;SDS011;9002;42.708;23.186;2023-06-04T05:13:17;7.30;;;6.60;;
8702;SDS011;9002;42.708;23.186;2023-06-04T05:15:44;8.63;;;7.87;;
8702;SDS011;9002;42.708;23.186;2023-06-04T05:18:13;7.20;;;6.40;;
8702;SDS011;9002;42.708;23.186;2023-06-04T05:23:16;6.23;;;5.70;;
8702;SDS011;9002;42.708;23.186;2023-06-04T05:25:43;6.33;;;5.80;;
8702;SDS011;9002;42.708;23.186;2023-06-04T05:28:11;6.93;;;6.27;;
8702;SDS011;9002;42.708;23.186;2023-06-04T05:30:38;8.77;;;7.13;;
8702;SDS011;9002;42.708;23.186;2023-06-04T05:33:06;7.03;;;6.03;;
8702;SDS011;9002;42.708;23.186;2023-06-04T05:35:43;6.83;;;6.10;;
8702;SDS011;9002;42.708;23.186;2023-06-04T05:38:10;6.83;;;6.10;;
8702;SDS011;9002;42.708;23.186;2023-06-04T05:40:42;6.63;;;6.00;;
8702;SDS011;9002;42.708;23.186;2023-06-04T05:43:11;6.93;;;6.30;;
8702;SDS011;9002;42.708;23.186;2023-06-04T05:45:37;8.80;;;6.00;;
8702;SDS011;9002;42.708;23.186;2023-06-04T05:48:05;6.97;;;6.37;;
8702;SDS011;9002;42.708;23.186;2023-06-04T05:50:32;8.00;;;5.83;;
8702;SDS011;9002;42.708;23.186;2023-06-04T05:52:59;7.07;;;6.17;;
8702;SDS011;9002;42.708;23.186;2023-06-04T05:57:54;7.67;;;6.60;;
8702;SDS011;9002;42.708;23.186;2023-06-04T06:00:23;6.67;;;5.77;;
8702;SDS011;9002;42.708;23.186;2023-06-04T06:02:50;6.67;;;5.63;;
8702;SDS011;9002;42.708;23.186;2023-06-04T06:05:17;7.63;;;6.47;;
8702;SDS011;9002;42.708;23.186;2023-06-04T06:07:45;9.73;;;5.70;;
8702;SDS011;9002;42.708;23.186;2023-06-04T06:10:12;6.30;;;5.70;;
8702;SDS011;9002;42.708;23.186;2023-06-04T06:12:40;6.63;;;5.70;;
8702;SDS011;9002;42.708;23.186;2023-06-04T06:15:08;12.37;;;6.13;;
8702;SDS011;9002;42.708;23.186;2023-06-04T06:17:37;8.20;;;6.10;;
8702;SDS011;9002;42.708;23.186;2023-06-04T06:20:05;7.23;;;6.40;;
8702;SDS011;9002;42.708;23.186;2023-06-04T06:22:33;6.57;;;5.97;;
8702;SDS011;9002;42.708;23.186;2023-06-04T06:25:00;6.93;;;6.33;;
8702;SDS011;9002;42.708;23.186;2023-06-04T06:27:27;6.73;;;6.13;;
8702;SDS011;9002;42.708;23.186;2023-06-04T06:29:54;7.90;;;6.13;;
8702;SDS011;9002;42.708;23.186;2023-06-04T06:32:22;7.63;;;5.93;;
8702;SDS011;9002;42.708;23.186;2023-06-04T06:34:50;7.90;;;6.00;;
8702;SDS011;9002;42.708;23.186;2023-06-04T06:37:17;6.43;;;5.83;;
8702;SDS011;9002;42.708;23.186;2023-06-04T06:39:44;8.27;;;6.00;;
8702;SDS011;9002;42.708;23.186;2023-06-04T06:42:10;7.17;;;6.40;;
8702;SDS011;9002;42.708;23.186;2023-06-04T06:44:37;6.93;;;6.07;;
8702;SDS011;9002;42.708;23.186;2023-06-04T06:47:04;6.80;;;6.10;;
8702;SDS011;9002;42.708;23.186;2023-06-04T06:49:31;6.37;;;5.87;;
8702;SDS011;9002;42.708;23.186;2023-06-04T06:52:00;7.10;;;5.90;;
8702;SDS011;9002;42.708;23.186;2023-06-04T06:54:26;7.20;;;6.50;;
8702;SDS011;9002;42.708;23.186;2023-06-04T06:56:53;7.23;;;6.60;;
8702;SDS011;9002;42.708;23.186;2023-06-04T06:59:20;6.93;;;5.90;;
8702;SDS011;9002;42.708;23.186;2023-06-04T07:01:47;6.83;;;5.70;;
8702;SDS011;9002;42.708;23.186;2023-06-04T07:04:14;7.77;;;6.53;;
8702;SDS011;9002;42.708;23.186;2023-06-04T07:06:41;11.43;;;9.73;;
8702;SDS011;9002;42.708;23.186;2023-06-04T07:09:09;7.03;;;5.60;;
8702;SDS011;9002;42.708;23.186;2023-06-04T07:11:36;6.20;;;5.60;;
8702;SDS011;9002;42.708;23.186;2023-06-04T07:14:03;7.57;;;5.77;;
8702;SDS011;9002;42.708;23.186;2023-06-04T07:16:29;7.83;;;6.30;;
8702;SDS011;9002;42.708;23.186;2023-06-04T07:18:56;7.63;;;5.40;;
8702;SDS011;9002;42.708;23.186;2023-06-04T07:21:23;6.87;;;6.27;;
8702;SDS011;9002;42.708;23.186;2023-06-04T07:23:50;7.73;;;6.50;;
8702;SDS011;9002;42.708;23.186;2023-06-04T07:26:18;6.93;;;6.33;;
8702;SDS011;9002;42.708;23.186;2023-06-04T07:28:45;6.90;;;6.30;;
8702;SDS011;9002;42.708;23.186;2023-06-04T07:31:14;7.57;;;6.23;;
8702;SDS011;9002;42.708;23.186;2023-06-04T07:33:41;9.07;;;5.93;;
8702;SDS011;9002;42.708;23.186;2023-06-04T07:36:09;8.47;;;7.50;;
8702;SDS011;9002;42.708;23.186;2023-06-04T07:38:36;7.70;;;6.93;;
8702;SDS011;9002;42.708;23.186;2023-06-04T07:41:03;8.27;;;7.20;;
8702;SDS011;9002;42.708;23.186;2023-06-04T07:43:32;6.37;;;5.80;;
8702;SDS011;9002;42.708;23.186;2023-06-04T07:45:59;7.73;;;6.57;;
8702;SDS011;9002;42.708;23.186;2023-06-04T07:48:26;7.50;;;6.80;;
8702;SDS011;9002;42.708;23.186;2023-06-04T07:50:56;7.23;;;6.47;;
8702;SDS011;9002;42.708;23.186;2023-06-04T07:53:23;8.80;;;7.80;;
8702;SDS011;9002;42.708;23.186;2023-06-04T07:55:50;7.63;;;6.57;;
8702;SDS011;9002;42.708;23.186;2023-06-04T07:58:18;7.30;;;6.30;;
8702;SDS011;9002;42.708;23.186;2023-06-04T08:00:46;7.93;;;6.17;;
8702;SDS011;9002;42.708;23.186;2023-06-04T08:03:13;8.40;;;7.43;;
8702;SDS011;9002;42.708;23.186;2023-06-04T08:05:40;8.60;;;7.77;;
8702;SDS011;9002;42.708;23.186;2023-06-04T08:08:07;12.07;;;8.47;;
8702;SDS011;9002;42.708;23.186;2023-06-04T08:10:34;10.97;;;8.47;;
8702;SDS011;9002;42.708;23.186;2023-06-04T08:13:01;9.07;;;7.67;;
8702;SDS011;9002;42.708;23.186;2023-06-04T08:15:28;9.97;;;8.10;;
8702;SDS011;9002;42.708;23.186;2023-06-04T08:17:56;11.33;;;9.03;;
8702;SDS011;9002;42.708;23.186;2023-06-04T08:20:23;13.57;;;9.13;;
8702;SDS011;9002;42.708;23.186;2023-06-04T08:22:50;9.57;;;8.23;;
8702;SDS011;9002;42.708;23.186;2023-06-04T08:25:17;8.33;;;7.50;;
8702;SDS011;9002;42.708;23.186;2023-06-04T08:27:44;8.80;;;7.90;;
8702;SDS011;9002;42.708;23.186;2023-06-04T08:30:11;11.63;;;8.60;;
8702;SDS011;9002;42.708;23.186;2023-06-04T08:32:38;12.03;;;8.80;;
8702;SDS011;9002;42.708;23.186;2023-06-04T08:35:07;11.90;;;9.10;;
8702;SDS011;9002;42.708;23.186;2023-06-04T08:37:35;10.37;;;8.67;;
8702;SDS011;9002;42.708;23.186;2023-06-04T08:40:02;10.67;;;9.43;;
8702;SDS011;9002;42.708;23.186;2023-06-04T08:42:33;10.90;;;9.73;;
8702;SDS011;9002;42.708;23.186;2023-06-04T08:45:07;12.80;;;9.57;;
8702;SDS011;9002;42.708;23.186;2023-06-04T08:47:38;11.93;;;9.17;;
8702;SDS011;9002;42.708;23.186;2023-06-04T08:50:11;9.53;;;8.47;;
8702;SDS011;9002;42.708;23.186;2023-06-04T08:52:40;10.20;;;8.50;;
8702;SDS011;9002;42.708;23.186;2023-06-04T08:55:08;9.20;;;8.23;;
8702;SDS011;9002;42.708;23.186;2023-06-04T08:57:39;10.37;;;8.57;;
8702;SDS011;9002;42.708;23.186;2023-06-04T09:00:06;10.13;;;8.73;;
8702;SDS011;9002;42.708;23.186;2023-06-04T09:02:35;12.00;;;9.17;;
8702;SDS011;9002;42.708;23.186;2023-06-04T09:05:03;10.03;;;8.50;;
8702;SDS011;9002;42.708;23.186;2023-06-04T09:07:35;10.47;;;8.00;;
8702;SDS011;9002;42.708;23.186;2023-06-04T09:10:05;12.77;;;8.30;;
8702;SDS011;9002;42.708;23.186;2023-06-04T09:12:35;9.83;;;8.77;;
8702;SDS011;9002;42.708;23.186;2023-06-04T09:15:03;10.23;;;9.13;;
8702;SDS011;9002;42.708;23.186;2023-06-04T09:17:30;9.97;;;8.87;;
8702;SDS011;9002;42.708;23.186;2023-06-04T09:19:57;10.03;;;7.67;;
8702;SDS011;9002;42.708;23.186;2023-06-04T09:22:31;14.40;;;9.07;;
8702;SDS011;9002;42.708;23.186;2023-06-04T09:25:00;10.23;;;9.13;;
8702;SDS011;9002;42.708;23.186;2023-06-04T09:27:28;9.90;;;8.90;;
8702;SDS011;9002;42.708;23.186;2023-06-04T09:30:04;12.57;;;10.07;;
8702;SDS011;9002;42.708;23.186;2023-06-04T09:32:33;10.87;;;9.73;;
8702;SDS011;9002;42.708;23.186;2023-06-04T09:35:08;10.70;;;9.47;;
8702;SDS011;9002;42.708;23.186;2023-06-04T09:37:36;9.47;;;8.50;;
8702;SDS011;9002;42.708;23.186;2023-06-04T09:40:05;10.37;;;9.33;;
8702;SDS011;9002;42.708;23.186;2023-06-04T09:42:41;13.30;;;9.97;;
8702;SDS011;9002;42.708;23.186;2023-06-04T09:45:09;10.80;;;9.53;;
8702;SDS011;9002;42.708;23.186;2023-06-04T09:47:40;10.77;;;9.60;;
8702;SDS011;9002;42.708;23.186;2023-06-04T09:50:08;13.70;;;10.03;;
8702;SDS011;9002;42.708;23.186;2023-06-04T09:55:16;12.73;;;11.33;;
8702;SDS011;9002;42.708;23.186;2023-06-04T09:57:46;11.73;;;9.80;;
8702;SDS011;9002;42.708;23.186;2023-06-04T10:00:14;10.80;;;9.70;;
8702;SDS011;9002;42.708;23.186;2023-06-04T10:02:44;11.33;;;10.23;;
8702;SDS011;9002;42.708;23.186;2023-06-04T10:05:11;10.77;;;9.77;;
8702;SDS011;9002;42.708;23.186;2023-06-04T10:07:40;11.40;;;10.03;;
8702;SDS011;9002;42.708;23.186;2023-06-04T10:10:10;11.37;;;9.70;;
8702;SDS011;9002;42.708;23.186;2023-06-04T10:12:42;10.77;;;9.67;;
8702;SDS011;9002;42.708;23.186;2023-06-04T10:15:11;12.57;;;10.50;;
8702;SDS011;9002;42.708;23.186;2023-06-04T10:17:39;11.43;;;9.03;;
8702;SDS011;9002;42.708;23.186;2023-06-04T10:20:07;9.27;;;8.33;;
8702;SDS011;9002;42.708;23.186;2023-06-04T10:22:35;8.83;;;7.97;;
8702;SDS011;9002;42.708;23.186;2023-06-04T10:25:03;9.83;;;8.83;;
8702;SDS011;9002;42.708;23.186;2023-06-04T10:27:30;9.43;;;8.53;;
8702;SDS011;9002;42.708;23.186;2023-06-04T10:30:01;10.00;;;8.17;;
8702;SDS011;9002;42.708;23.186;2023-06-04T10:32:29;9.27;;;8.33;;
8702;SDS011;9002;42.708;23.186;2023-06-04T10:34:56;9.17;;;8.17;;
8702;SDS011;9002;42.708;23.186;2023-06-04T10:37:24;11.23;;;8.17;;
8702;SDS011;9002;42.708;23.186;2023-06-04T10:39:51;8.73;;;7.83;;
8702;SDS011;9002;42.708;23.186;2023-06-04T10:42:19;10.30;;;8.27;;
8702;SDS011;9002;42.708;23.186;2023-06-04T10:44:47;9.97;;;8.07;;
8702;SDS011;9002;42.708;23.186;2023-06-04T10:47:19;11.03;;;10.00;;
8702;SDS011;9002;42.708;23.186;2023-06-04T10:49:47;10.80;;;9.70;;
8702;SDS011;9002;42.708;23.186;2023-06-04T10:52:15;9.97;;;9.03;;
8702;SDS011;9002;42.708;23.186;2023-06-04T10:54:42;9.73;;;8.77;;
8702;SDS011;9002;42.708;23.186;2023-06-04T10:57:11;12.47;;;11.33;;
8702;SDS011;9002;42.708;23.186;2023-06-04T10:59:38;9.87;;;8.83;;
8702;SDS011;9002;42.708;23.186;2023-06-04T11:02:06;11.07;;;9.27;;
8702;SDS011;9002;42.708;23.186;2023-06-04T11:04:35;10.27;;;9.13;;
8702;SDS011;9002;42.708;23.186;2023-06-04T11:07:03;9.37;;;8.53;;
8702;SDS011;9002;42.708;23.186;2023-06-04T11:09:34;10.07;;;9.07;;
8702;SDS011;9002;42.708;23.186;2023-06-04T11:12:01;10.87;;;9.80;;
8702;SDS011;9002;42.708;23.186;2023-06-04T11:14:30;10.37;;;9.30;;
8702;SDS011;9002;42.708;23.186;2023-06-04T11:16:57;10.40;;;9.30;;
8702;SDS011;9002;42.708;23.186;2023-06-04T11:19:36;10.37;;;9.27;;
8702;SDS011;9002;42.708;23.186;2023-06-04T11:22:04;9.57;;;8.30;;
8702;SDS011;9002;42.708;23.186;2023-06-04T11:24:31;10.00;;;9.00;;
8702;SDS011;9002;42.708;23.186;2023-06-04T11:26:58;9.93;;;8.53;;
8702;SDS011;9002;42.708;23.186;2023-06-04T11:29:25;9.90;;;8.90;;
8702;SDS011;9002;42.708;23.186;2023-06-04T11:31:52;10.13;;;9.13;;
8702;SDS011;9002;42.708;23.186;2023-06-04T11:34:22;9.07;;;8.27;;
8702;SDS011;9002;42.708;23.186;2023-06-04T11:36:51;10.03;;;9.00;;
8702;SDS011;9002;42.708;23.186;2023-06-04T11:39:19;9.00;;;8.20;;
8702;SDS011;9002;42.708;23.186;2023-06-04T11:41:46;9.53;;;8.47;;
8702;SDS011;9002;42.708;23.186;2023-06-04T11:44:13;9.07;;;8.10;;
8702;SDS011;9002;42.708;23.186;2023-06-04T11:46:41;9.47;;;8.63;;
8702;SDS011;9002;42.708;23.186;2023-06-04T11:49:11;11.50;;;9.80;;
8702;SDS011;9002;42.708;23.186;2023-06-04T11:51:44;10.10;;;9.20;;
8702;SDS011;9002;42.708;23.186;2023-06-04T11:54:13;10.60;;;9.53;;
8702;SDS011;9002;42.708;23.186;2023-06-04T11:56:41;9.87;;;8.87;;
8702;SDS011;9002;42.708;23.186;2023-06-04T11:59:09;10.43;;;9.53;;
8702;SDS011;9002;42.708;23.186;2023-06-04T12:01:38;10.83;;;9.83;;
8702;SDS011;9002;42.708;23.186;2023-06-04T12:04:11;11.70;;;10.60;;
8702;SDS011;9002;42.708;23.186;2023-06-04T12:06:38;11.50;;;10.50;;
8702;SDS011;9002;42.708;23.186;2023-06-04T12:09:06;11.60;;;10.47;;
8702;SDS011;9002;42.708;23.186;2023-06-04T12:11:34;11.30;;;10.20;;
8702;SDS011;9002;42.708;23.186;2023-06-04T12:14:03;11.73;;;10.53;;
8702;SDS011;9002;42.708;23.186;2023-06-04T12:16:31;11.60;;;10.50;;
8702;SDS011;9002;42.708;23.186;2023-06-04T12:19:05;10.87;;;9.87;;
8702;SDS011;9002;42.708;23.186;2023-06-04T12:21:37;10.73;;;9.73;;
8702;SDS011;9002;42.708;23.186;2023-06-04T12:24:08;11.17;;;10.17;;
8702;SDS011;9002;42.708;23.186;2023-06-04T12:26:37;11.17;;;9.80;;
8702;SDS011;9002;42.708;23.186;2023-06-04T12:29:09;13.73;;;10.37;;
8702;SDS011;9002;42.708;23.186;2023-06-04T12:31:37;10.93;;;9.93;;
8702;SDS011;9002;42.708;23.186;2023-06-04T12:34:04;10.47;;;9.33;;
8702;SDS011;9002;42.708;23.186;2023-06-04T12:36:31;12.03;;;10.90;;
8702;SDS011;9002;42.708;23.186;2023-06-04T12:39:00;10.77;;;9.70;;
8702;SDS011;9002;42.708;23.186;2023-06-04T12:41:28;10.73;;;9.80;;
8702;SDS011;9002;42.708;23.186;2023-06-04T12:43:57;10.80;;;9.80;;
8702;SDS011;9002;42.708;23.186;2023-06-04T12:46:24;10.70;;;9.50;;
8702;SDS011;9002;42.708;23.186;2023-06-04T12:48:51;11.53;;;9.73;;
8702;SDS011;9002;42.708;23.186;2023-06-04T12:51:19;10.43;;;9.50;;
8702;SDS011;9002;42.708;23.186;2023-06-04T12:53:46;11.13;;;10.23;;
8702;SDS011;9002;42.708;23.186;2023-06-04T12:56:14;10.33;;;9.33;;
8702;SDS011;9002;42.708;23.186;2023-06-04T12:58:41;11.20;;;10.20;;
8702;SDS011;9002;42.708;23.186;2023-06-04T13:01:09;12.47;;;9.97;;
8702;SDS011;9002;42.708;23.186;2023-06-04T13:03:36;11.03;;;10.03;;
8702;SDS011;9002;42.708;23.186;2023-06-04T13:06:04;11.00;;;9.70;;
8702;SDS011;9002;42.708;23.186;2023-06-04T13:08:31;10.50;;;9.47;;
8702;SDS011;9002;42.708;23.186;2023-06-04T13:10:58;10.07;;;9.17;;
8702;SDS011;9002;42.708;23.186;2023-06-04T13:13:25;9.53;;;8.67;;
8702;SDS011;9002;42.708;23.186;2023-06-04T13:15:51;10.07;;;9.03;;
8702;SDS011;9002;42.708;23.186;2023-06-04T13:18:20;9.07;;;8.17;;
8702;SDS011;9002;42.708;23.186;2023-06-04T13:20:46;9.67;;;8.73;;
8702;SDS011;9002;42.708;23.186;2023-06-04T13:23:14;9.53;;;8.60;;
8702;SDS011;9002;42.708;23.186;2023-06-04T13:25:41;9.20;;;8.33;;
8702;SDS011;9002;42.708;23.186;2023-06-04T13:28:08;8.67;;;7.87;;
8702;SDS011;9002;42.708;23.186;2023-06-04T13:30:35;9.20;;;7.73;;
8702;SDS011;9002;42.708;23.186;2023-06-04T13:33:02;10.07;;;8.40;;
8702;SDS011;9002;42.708;23.186;2023-06-04T13:35:31;8.77;;;8.00;;
8702;SDS011;9002;42.708;23.186;2023-06-04T13:37:58;8.17;;;7.40;;
8702;SDS011;9002;42.708;23.186;2023-06-04T13:40:24;9.20;;;8.40;;
8702;SDS011;9002;42.708;23.186;2023-06-04T13:42:51;8.57;;;7.67;;
8702;SDS011;9002;42.708;23.186;2023-06-04T13:45:18;7.77;;;7.13;;
8702;SDS011;9002;42.708;23.186;2023-06-04T13:47:46;7.97;;;7.33;;
8702;SDS011;9002;42.708;23.186;2023-06-04T13:50:14;7.50;;;6.90;;
8702;SDS011;9002;42.708;23.186;2023-06-04T13:52:43;8.00;;;7.20;;
8702;SDS011;9002;42.708;23.186;2023-06-04T13:55:11;7.50;;;6.70;;
8702;SDS011;9002;42.708;23.186;2023-06-04T13:57:38;7.23;;;6.53;;
8702;SDS011;9002;42.708;23.186;2023-06-04T14:00:05;7.37;;;6.03;;
8702;SDS011;9002;42.708;23.186;2023-06-04T14:02:33;7.07;;;6.40;;
8702;SDS011;9002;42.708;23.186;2023-06-04T14:05:00;8.13;;;6.60;;
8702;SDS011;9002;42.708;23.186;2023-06-04T14:07:27;7.80;;;7.10;;
8702;SDS011;9002;42.708;23.186;2023-06-04T14:09:55;8.10;;;7.30;;
8702;SDS011;9002;42.708;23.186;2023-06-04T14:12:22;9.37;;;7.13;;
8702;SDS011;9002;42.708;23.186;2023-06-04T14:14:49;10.43;;;7.37;;
8702;SDS011;9002;42.708;23.186;2023-06-04T14:17:16;8.37;;;7.57;;
8702;SDS011;9002;42.708;23.186;2023-06-04T14:19:43;9.13;;;8.13;;
8702;SDS011;9002;42.708;23.186;2023-06-04T14:22:10;8.40;;;7.70;;
8702;SDS011;9002;42.708;23.186;2023-06-04T14:24:37;9.07;;;8.17;;
8702;SDS011;9002;42.708;23.186;2023-06-04T14:27:07;13.83;;;10.87;;
8702;SDS011;9002;42.708;23.186;2023-06-04T14:29:34;9.97;;;9.17;;
8702;SDS011;9002;42.708;23.186;2023-06-04T14:32:02;10.03;;;9.03;;
8702;SDS011;9002;42.708;23.186;2023-06-04T14:34:29;8.73;;;7.83;;
8702;SDS011;9002;42.708;23.186;2023-06-04T14:36:57;10.43;;;8.37;;
8702;SDS011;9002;42.708;23.186;2023-06-04T14:39:24;9.37;;;8.43;;
8702;SDS011;9002;42.708;23.186;2023-06-04T14:41:51;10.40;;;9.40;;
8702;SDS011;9002;42.708;23.186;2023-06-04T14:44:20;9.50;;;8.60;;
8702;SDS011;9002;42.708;23.186;2023-06-04T14:46:48;10.30;;;9.27;;
8702;SDS011;9002;42.708;23.186;2023-06-04T14:49:16;10.23;;;9.27;;
8702;SDS011;9002;42.708;23.186;2023-06-04T14:51:43;10.73;;;9.30;;
8702;SDS011;9002;42.708;23.186;2023-06-04T14:54:10;9.27;;;8.47;;
8702;SDS011;9002;42.708;23.186;2023-06-04T14:56:37;8.83;;;8.00;;
8702;SDS011;9002;42.708;23.186;2023-06-04T14:59:04;9.47;;;8.50;;
8702;SDS011;9002;42.708;23.186;2023-06-04T15:01:35;9.03;;;8.20;;
8702;SDS011;9002;42.708;23.186;2023-06-04T15:04:03;9.87;;;8.87;;
8702;SDS011;9002;42.708;23.186;2023-06-04T15:06:30;10.57;;;9.00;;
8702;SDS011;9002;42.708;23.186;2023-06-04T15:08:57;11.77;;;10.77;;
8702;SDS011;9002;42.708;23.186;2023-06-04T15:11:24;10.00;;;9.00;;
8702;SDS011;9002;42.708;23.186;2023-06-04T15:13:52;13.17;;;11.90;;
8702;SDS011;9002;42.708;23.186;2023-06-04T15:16:19;12.77;;;11.47;;
8702;SDS011;9002;42.708;23.186;2023-06-04T15:18:47;10.17;;;9.27;;
8702;SDS011;9002;42.708;23.186;2023-06-04T15:21:14;10.60;;;9.60;;
8702;SDS011;9002;42.708;23.186;2023-06-04T15:23:41;10.20;;;9.13;;